createdAt,value
2022-12-24T00:01:01.854Z,10.89
2022-12-24T00:03:28.869Z,10.92
2022-12-24T00:05:55.651Z,10.82
2022-12-24T00:08:22.454Z,11.02
2022-12-24T00:10:53.309Z,10.79
2022-12-24T00:13:20.589Z,10.85
2022-12-24T00:15:47.528Z,10.90
2022-12-24T00:18:14.195Z,10.85
2022-12-24T00:20:40.896Z,10.89
2022-12-24T00:23:07.901Z,10.95
2022-12-24T00:25:34.637Z,11.01
2022-12-24T00:28:01.257Z,10.84
2022-12-24T00:30:27.992Z,10.77
2022-12-24T00:32:54.602Z,10.89
2022-12-24T00:35:21.919Z,11.00
2022-12-24T00:37:49.524Z,10.90
2022-12-24T00:40:17.528Z,10.77
2022-12-24T00:42:44.442Z,10.96
2022-12-24T00:45:12.214Z,10.68
2022-12-24T00:47:38.819Z,10.89
2022-12-24T00:50:06.075Z,10.65
2022-12-24T00:52:32.665Z,10.74
2022-12-24T00:54:59.253Z,10.63
2022-12-24T00:57:26.243Z,10.53
2022-12-24T00:59:52.771Z,10.72
2022-12-24T01:02:19.669Z,10.80
2022-12-24T01:05:05.111Z,10.77
2022-12-24T01:07:31.832Z,10.60
2022-12-24T01:09:58.346Z,10.62
2022-12-24T01:12:25.519Z,10.59
2022-12-24T01:14:52.164Z,10.58
2022-12-24T01:17:19.087Z,10.73
2022-12-24T01:19:45.651Z,10.78
2022-12-24T01:22:12.319Z,10.68
2022-12-24T01:24:41.497Z,10.63
2022-12-24T01:27:08.196Z,10.81
2022-12-24T01:29:34.968Z,10.89
2022-12-24T01:32:01.645Z,10.95
2022-12-24T01:34:28.255Z,10.58
2022-12-24T01:36:54.903Z,10.73
2022-12-24T01:39:23.179Z,10.51
2022-12-24T01:42:11.338Z,10.44
2022-12-24T01:44:44.212Z,10.62
2022-12-24T01:47:13.450Z,10.56
2022-12-24T01:50:13.409Z,10.69
2022-12-24T01:52:40.004Z,10.47
2022-12-24T01:55:23.899Z,10.55
2022-12-24T01:57:55.001Z,10.56
2022-12-24T02:00:22.174Z,10.51
2022-12-24T02:02:53.069Z,10.48
2022-12-24T02:05:50.444Z,10.70
2022-12-24T02:08:18.636Z,10.72
2022-12-24T02:10:46.838Z,10.62
2022-12-24T02:13:15.986Z,10.49
2022-12-24T02:16:10.417Z,10.76
2022-12-24T02:18:55.184Z,10.76
2022-12-24T02:21:42.025Z,10.71
2022-12-24T02:24:37.933Z,10.62
2022-12-24T02:27:14.423Z,10.66
2022-12-24T02:29:43.936Z,10.67
2022-12-24T02:32:24.384Z,10.55
2022-12-24T02:35:05.689Z,10.72
2022-12-24T02:37:37.116Z,10.55
2022-12-24T02:40:16.046Z,10.66
2022-12-24T02:42:51.329Z,10.65
2022-12-24T02:45:22.113Z,10.59
2022-12-24T02:47:50.587Z,10.59
2022-12-24T02:50:17.837Z,10.87
2022-12-24T02:52:46.393Z,10.52
2022-12-24T02:55:20.860Z,10.51
2022-12-24T02:57:54.767Z,10.28
2022-12-24T03:00:25.723Z,10.46
2022-12-24T03:03:19.352Z,10.59
2022-12-24T03:06:10.853Z,10.63
2022-12-24T03:08:56.562Z,10.35
2022-12-24T03:11:23.515Z,10.34
2022-12-24T03:13:51.676Z,10.59
2022-12-24T03:16:24.681Z,10.43
2022-12-24T03:18:53.632Z,10.38
2022-12-24T03:21:35.061Z,10.58
2022-12-24T03:24:02.167Z,10.45
2022-12-24T03:26:30.760Z,10.47
2022-12-24T03:28:57.417Z,10.38
2022-12-24T03:31:24.169Z,10.54
2022-12-24T03:33:51.096Z,10.49
2022-12-24T03:36:18.242Z,10.78
2022-12-24T03:38:47.827Z,10.69
2022-12-24T03:41:14.346Z,10.67
2022-12-24T03:43:40.909Z,10.44
2022-12-24T03:46:08.463Z,10.59
2022-12-24T03:48:35.719Z,10.43
2022-12-24T03:51:03.090Z,10.54
2022-12-24T03:53:29.685Z,10.69
2022-12-24T03:55:56.349Z,10.61
2022-12-24T03:58:26.018Z,10.49
2022-12-24T04:00:53.052Z,10.51
2022-12-24T04:03:19.649Z,10.50
2022-12-24T04:05:46.223Z,10.30
2022-12-24T04:08:12.746Z,10.59
2022-12-24T04:10:39.357Z,10.47
2022-12-24T04:13:05.873Z,10.50
2022-12-24T04:15:32.412Z,10.61
2022-12-24T04:17:59.016Z,10.67
2022-12-24T04:20:25.610Z,10.45
2022-12-24T04:22:53.020Z,10.39
2022-12-24T04:25:19.540Z,10.43
2022-12-24T04:27:46.084Z,10.39
2022-12-24T04:30:12.818Z,10.28
2022-12-24T04:32:39.322Z,10.52
2022-12-24T04:35:06.197Z,10.61
2022-12-24T04:37:33.896Z,10.56
2022-12-24T04:40:00.548Z,10.54
2022-12-24T04:42:27.358Z,10.40
2022-12-24T04:44:53.932Z,10.27
2022-12-24T04:47:20.462Z,10.59
2022-12-24T04:49:47.054Z,10.48
2022-12-24T04:52:13.705Z,10.69
2022-12-24T04:54:40.272Z,10.59
2022-12-24T04:57:06.878Z,10.73
2022-12-24T04:59:33.426Z,10.65
2022-12-24T05:02:00.173Z,10.39
2022-12-24T05:04:26.876Z,10.63
2022-12-24T05:06:53.424Z,10.54
2022-12-24T05:09:20.044Z,10.53
2022-12-24T05:11:46.618Z,10.36
2022-12-24T05:14:13.153Z,10.30
2022-12-24T05:16:39.892Z,10.31
2022-12-24T05:19:06.787Z,10.38
2022-12-24T05:21:33.401Z,10.26
2022-12-24T05:24:18.687Z,10.19
2022-12-24T05:26:57.438Z,10.04
2022-12-24T05:29:24.179Z,10.28
2022-12-24T05:31:50.739Z,10.48
2022-12-24T05:34:17.445Z,10.28
2022-12-24T05:36:44.555Z,10.27
2022-12-24T05:39:18.662Z,10.16
2022-12-24T05:41:46.035Z,10.23
2022-12-24T05:44:12.923Z,10.34
2022-12-24T05:46:39.575Z,10.17
2022-12-24T05:49:06.518Z,10.11
2022-12-24T05:51:33.077Z,10.10
2022-12-24T05:53:59.755Z,10.18
2022-12-24T05:56:26.576Z,10.25
2022-12-24T05:58:54.612Z,10.23
2022-12-24T06:01:22.795Z,10.07
2022-12-24T06:04:04.958Z,10.12
2022-12-24T06:06:31.613Z,10.28
2022-12-24T06:08:58.256Z,10.23
2022-12-24T06:11:26.680Z,10.15
2022-12-24T06:13:54.220Z,10.16
2022-12-24T06:16:21.902Z,10.05
2022-12-24T06:18:48.609Z,10.25
2022-12-24T06:21:15.724Z,10.24
2022-12-24T06:23:43.930Z,10.22
2022-12-24T06:26:16.459Z,10.14
2022-12-24T06:28:43.819Z,10.46
2022-12-24T06:31:16.103Z,10.39
2022-12-24T06:33:43.248Z,10.50
2022-12-24T06:36:17.581Z,10.15
2022-12-24T06:38:45.946Z,10.30
2022-12-24T06:41:12.577Z,10.36
2022-12-24T06:43:39.449Z,10.43
2022-12-24T06:46:06.056Z,10.62
2022-12-24T06:48:32.737Z,10.31
2022-12-24T06:51:03.136Z,10.33
2022-12-24T06:53:30.633Z,10.36
2022-12-24T06:56:05.287Z,10.45
2022-12-24T06:58:32.567Z,10.26
2022-12-24T07:01:01.981Z,10.40
2022-12-24T07:03:29.197Z,10.31
2022-12-24T07:05:55.829Z,10.37
2022-12-24T07:08:22.418Z,10.20
2022-12-24T07:10:54.113Z,10.33
2022-12-24T07:13:21.183Z,10.27
2022-12-24T07:15:47.709Z,10.50
2022-12-24T07:18:14.489Z,10.62
2022-12-24T07:20:42.617Z,10.40
2022-12-24T07:23:09.169Z,10.33
2022-12-24T07:25:35.777Z,10.33
2022-12-24T07:28:02.360Z,10.34
2022-12-24T07:30:28.928Z,10.31
2022-12-24T07:32:55.570Z,10.43
2022-12-24T07:35:22.102Z,10.37
2022-12-24T07:37:48.663Z,10.39
2022-12-24T07:40:15.322Z,10.43
2022-12-24T07:42:41.906Z,10.31
2022-12-24T07:45:09.144Z,10.31
2022-12-24T07:47:35.808Z,10.39
2022-12-24T07:50:04.082Z,10.47
2022-12-24T07:52:32.156Z,10.43
2022-12-24T07:54:58.734Z,10.43
2022-12-24T07:57:25.295Z,10.52
2022-12-24T07:59:51.837Z,10.43
2022-12-24T08:02:18.988Z,10.40
2022-12-24T08:04:45.761Z,10.39
2022-12-24T08:07:37.448Z,10.21
2022-12-24T08:10:04.362Z,10.43
2022-12-24T08:12:30.832Z,10.51
2022-12-24T08:14:57.405Z,10.35
2022-12-24T08:17:30.181Z,10.38
2022-12-24T08:19:58.835Z,10.56
2022-12-24T08:22:25.896Z,10.38
2022-12-24T08:24:52.853Z,10.32
2022-12-24T08:27:19.752Z,10.53
2022-12-24T08:29:46.443Z,10.78
2022-12-24T08:32:12.988Z,10.83
2022-12-24T08:34:39.575Z,10.75
2022-12-24T08:37:06.433Z,10.61
2022-12-24T08:39:33.051Z,10.58
2022-12-24T08:41:59.732Z,10.52
2022-12-24T08:44:26.862Z,10.60
2022-12-24T08:46:53.674Z,10.71
2022-12-24T08:49:20.383Z,10.53
2022-12-24T08:51:47.156Z,10.69
2022-12-24T08:54:13.785Z,10.54
2022-12-24T08:56:40.432Z,10.44
2022-12-24T08:59:07.234Z,10.72
2022-12-24T09:01:34.781Z,10.60
2022-12-24T09:04:02.308Z,10.68
2022-12-24T09:06:28.953Z,10.64
2022-12-24T09:08:57.034Z,10.52
2022-12-24T09:11:24.442Z,10.62
2022-12-24T09:13:51.177Z,10.54
2022-12-24T09:16:18.109Z,10.82
2022-12-24T09:18:44.736Z,10.86
2022-12-24T09:21:18.681Z,10.55
2022-12-24T09:23:47.876Z,10.74
2022-12-24T09:26:17.886Z,10.87
2022-12-24T09:28:44.980Z,10.92
2022-12-24T09:31:12.900Z,10.90
2022-12-24T09:33:41.672Z,10.96
2022-12-24T09:36:09.118Z,10.87
2022-12-24T09:38:36.954Z,10.98
2022-12-24T09:41:15.610Z,10.80
2022-12-24T09:43:49.160Z,10.89
2022-12-24T09:46:50.944Z,11.04
2022-12-24T09:49:21.692Z,11.02
2022-12-24T09:51:53.965Z,10.93
2022-12-24T09:54:26.709Z,10.97
2022-12-24T09:56:54.952Z,11.14
2022-12-24T09:59:25.558Z,11.11
2022-12-24T10:01:55.029Z,11.10
2022-12-24T10:04:26.811Z,10.92
2022-12-24T10:07:37.009Z,10.94
2022-12-24T10:10:12.328Z,10.93
2022-12-24T10:13:08.622Z,11.04
2022-12-24T10:15:49.962Z,11.22
2022-12-24T10:18:30.886Z,11.18
2022-12-24T10:21:16.529Z,11.32
2022-12-24T10:24:06.280Z,11.27
2022-12-24T10:27:17.906Z,11.20
2022-12-24T10:29:53.363Z,11.22
2022-12-24T10:32:32.975Z,11.22
2022-12-24T10:35:02.298Z,11.24
2022-12-24T10:37:30.245Z,11.33
2022-12-24T10:39:58.946Z,11.32
2022-12-24T10:42:50.269Z,11.28
2022-12-24T10:45:21.376Z,11.24
2022-12-24T10:47:52.844Z,11.09
2022-12-24T10:53:44.487Z,11.00
2022-12-24T10:56:16.855Z,11.18
2022-12-24T10:58:45.612Z,11.36
2022-12-24T11:01:13.481Z,11.47
2022-12-24T11:03:40.334Z,11.53
2022-12-24T11:06:24.916Z,11.34
2022-12-24T11:08:51.646Z,11.33
2022-12-24T11:11:21.116Z,11.42
2022-12-24T11:13:50.546Z,11.33
2022-12-24T11:16:17.162Z,11.54
2022-12-24T11:22:29.868Z,11.61
2022-12-24T11:24:59.575Z,11.52
2022-12-24T11:27:41.736Z,11.81
2022-12-24T11:30:20.686Z,11.68
2022-12-24T11:33:00.605Z,11.66
2022-12-24T11:35:29.138Z,11.73
2022-12-24T11:38:01.611Z,11.81
2022-12-24T11:40:44.971Z,12.01
2022-12-24T11:43:18.639Z,11.92
2022-12-24T11:45:54.612Z,12.03
2022-12-24T11:48:31.360Z,12.03
2022-12-24T11:51:00.528Z,11.98
2022-12-24T11:53:51.422Z,11.87
2022-12-24T11:56:43.285Z,11.77
2022-12-24T11:59:22.357Z,11.73
2022-12-24T12:02:02.754Z,11.87
2022-12-24T12:04:38.004Z,11.89
2022-12-24T12:07:15.021Z,12.09
2022-12-24T12:09:48.176Z,11.92
2022-12-24T12:12:24.128Z,12.12
2022-12-24T12:14:55.884Z,11.76
2022-12-24T12:17:29.818Z,11.87
2022-12-24T12:20:04.009Z,11.89
2022-12-24T12:22:56.923Z,11.77
2022-12-24T12:25:30.185Z,11.94
2022-12-24T12:27:58.408Z,12.00
2022-12-24T12:30:25.662Z,11.75
2022-12-24T12:32:58.364Z,11.97
2022-12-24T12:35:31.889Z,11.92
2022-12-24T12:38:05.611Z,11.98
2022-12-24T12:41:03.304Z,11.76
2022-12-24T12:44:17.903Z,11.96
2022-12-24T12:46:59.606Z,12.18
2022-12-24T12:49:40.697Z,12.16
2022-12-24T12:52:17.114Z,12.25
2022-12-24T12:55:04.948Z,12.13
2022-12-24T12:57:37.663Z,11.97
2022-12-24T13:00:10.853Z,12.03
2022-12-24T13:02:56.473Z,12.18
2022-12-24T13:05:57.150Z,11.94
2022-12-24T13:08:53.870Z,12.18
2022-12-24T13:12:00.136Z,11.86
2022-12-24T13:14:42.610Z,11.93
2022-12-24T13:17:40.882Z,11.87
2022-12-24T13:20:46.915Z,11.94
2022-12-24T13:23:19.040Z,11.81
2022-12-24T13:25:49.789Z,11.79
2022-12-24T13:28:20.609Z,11.90
2022-12-24T13:30:53.580Z,11.90
2022-12-24T13:33:35.491Z,11.94
2022-12-24T13:36:07.882Z,12.04
2022-12-24T13:38:42.738Z,12.09
2022-12-24T13:41:42.256Z,12.13
2022-12-24T13:44:17.999Z,12.06
2022-12-24T13:46:57.831Z,12.09
2022-12-24T13:49:58.272Z,11.71
2022-12-24T13:52:28.979Z,11.80
2022-12-24T13:54:55.467Z,11.96
2022-12-24T13:57:36.919Z,11.77
2022-12-24T14:00:12.811Z,11.83
2022-12-24T14:03:00.414Z,11.80
2022-12-24T14:05:30.505Z,11.90
2022-12-24T14:07:58.684Z,11.60
2022-12-24T14:11:08.579Z,11.75
2022-12-24T14:13:38.418Z,11.81
2022-12-24T14:19:48.171Z,11.88
2022-12-24T14:22:27.459Z,11.86
2022-12-24T14:25:02.715Z,12.02
2022-12-24T14:27:58.927Z,12.03
2022-12-24T14:30:30.763Z,11.72
2022-12-24T14:32:57.625Z,11.74
2022-12-24T14:35:41.991Z,11.89
2022-12-24T14:38:15.406Z,11.58
2022-12-24T14:41:07.962Z,11.60
2022-12-24T14:43:56.443Z,11.70
2022-12-24T14:46:32.873Z,11.74
2022-12-24T14:49:05.136Z,11.75
2022-12-24T14:51:50.468Z,11.76
2022-12-24T14:54:45.268Z,11.63
2022-12-24T14:57:12.351Z,11.48
2022-12-24T14:59:47.681Z,11.46
2022-12-24T15:02:47.284Z,11.39
2022-12-24T15:05:19.659Z,11.46
2022-12-24T15:08:01.183Z,11.53
2022-12-24T15:10:32.721Z,11.48
2022-12-24T15:13:04.985Z,11.59
2022-12-24T15:15:32.479Z,11.36
2022-12-24T15:18:00.395Z,11.35
2022-12-24T15:20:28.883Z,11.43
2022-12-24T15:22:58.756Z,11.31
2022-12-24T15:25:31.295Z,11.28
2022-12-24T15:27:59.130Z,11.17
2022-12-24T15:30:28.759Z,11.04
2022-12-24T15:32:57.839Z,11.00
2022-12-24T15:36:03.098Z,10.75
2022-12-24T15:38:34.323Z,10.85
2022-12-24T15:41:04.924Z,10.87
2022-12-24T15:43:32.780Z,10.90
2022-12-24T15:46:01.455Z,10.92
2022-12-24T15:48:33.854Z,10.90
2022-12-24T15:51:04.681Z,10.91
2022-12-24T15:53:31.643Z,10.93
2022-12-24T15:56:35.013Z,10.81
2022-12-24T15:59:31.455Z,10.73
2022-12-24T16:02:33.242Z,10.75
2022-12-24T16:05:19.001Z,10.62
2022-12-24T16:08:22.196Z,10.69
2022-12-24T16:10:52.798Z,10.63
2022-12-24T16:13:22.369Z,10.55
2022-12-24T16:15:52.222Z,10.35
2022-12-24T16:18:24.046Z,10.50
2022-12-24T16:20:52.180Z,10.49
2022-12-24T16:23:31.014Z,10.46
2022-12-24T16:26:04.005Z,10.41
2022-12-24T16:28:31.923Z,10.47
2022-12-24T16:30:58.938Z,10.34
2022-12-24T16:33:25.571Z,10.40
2022-12-24T16:35:52.555Z,10.41
2022-12-24T16:39:02.657Z,10.41
2022-12-24T16:41:29.212Z,10.29
2022-12-24T16:43:55.714Z,10.33
2022-12-24T16:50:40.351Z,10.15
2022-12-24T16:53:17.553Z,10.17
2022-12-24T16:55:49.646Z,10.13
2022-12-24T16:58:18.124Z,10.11
2022-12-24T17:03:57.274Z,9.92
2022-12-24T17:06:23.889Z,9.88
2022-12-24T17:08:50.504Z,9.74
2022-12-24T17:11:16.997Z,9.68
2022-12-24T17:13:43.583Z,9.62
2022-12-24T17:16:10.257Z,9.58
2022-12-24T17:18:36.746Z,9.52
2022-12-24T17:21:06.948Z,9.58
2022-12-24T17:23:33.619Z,9.49
2022-12-24T17:26:00.239Z,9.40
2022-12-24T17:28:26.773Z,9.33
2022-12-24T17:35:25.587Z,9.24
2022-12-24T17:37:52.143Z,9.24
2022-12-24T17:40:18.711Z,9.19
2022-12-24T17:42:51.478Z,9.14
2022-12-24T17:45:18.490Z,9.04
2022-12-24T17:47:45.107Z,9.11
2022-12-24T17:50:11.677Z,9.18
2022-12-24T17:52:38.331Z,9.17
2022-12-24T17:55:05.551Z,9.12
2022-12-24T17:57:32.188Z,9.09
2022-12-24T17:59:58.834Z,8.96
2022-12-24T18:02:34.532Z,8.97
2022-12-24T18:05:01.339Z,8.92
2022-12-24T18:07:28.023Z,8.84
2022-12-24T18:09:54.620Z,8.78
2022-12-24T18:12:21.359Z,8.75
2022-12-24T18:14:48.122Z,8.73
2022-12-24T18:17:17.787Z,8.62
2022-12-24T18:20:10.256Z,8.60
2022-12-24T18:22:36.878Z,8.55
2022-12-24T18:25:03.633Z,8.53
2022-12-24T18:27:30.262Z,8.50
2022-12-24T18:30:14.637Z,8.54
2022-12-24T18:32:41.522Z,8.44
2022-12-24T18:35:08.548Z,8.46
2022-12-24T18:37:35.173Z,8.41
2022-12-24T18:40:04.403Z,8.31
2022-12-24T18:42:31.038Z,8.25
2022-12-24T18:44:57.587Z,8.20
2022-12-24T18:47:24.195Z,8.26
2022-12-24T18:49:50.706Z,8.14
2022-12-24T18:52:22.465Z,8.12
2022-12-24T18:54:50.500Z,8.13
2022-12-24T18:57:17.079Z,8.10
2022-12-24T18:59:43.744Z,8.09
2022-12-24T19:02:10.340Z,8.04
2022-12-24T19:05:51.980Z,7.99
2022-12-24T19:08:55.782Z,7.93
2022-12-24T19:11:06.250Z,7.96
2022-12-24T19:13:33.207Z,7.91
2022-12-24T19:15:59.852Z,7.92
2022-12-24T19:18:26.964Z,7.83
2022-12-24T19:20:53.566Z,7.72
2022-12-24T19:23:20.183Z,7.68
2022-12-24T19:25:46.761Z,7.71
2022-12-24T19:28:13.652Z,7.64
2022-12-24T19:30:44.528Z,7.66
2022-12-24T19:33:11.249Z,7.60
2022-12-24T19:35:38.420Z,7.59
2022-12-24T19:38:05.131Z,7.55
2022-12-24T19:40:31.906Z,7.53
2022-12-24T19:43:25.323Z,7.50
2022-12-24T19:45:57.576Z,7.44
2022-12-24T19:48:24.219Z,7.37
2022-12-24T19:50:50.860Z,7.41
2022-12-24T19:53:17.411Z,7.31
2022-12-24T19:55:47.164Z,7.32
2022-12-24T19:58:13.787Z,7.26
2022-12-24T20:00:40.559Z,7.18
2022-12-24T20:03:35.832Z,7.16
2022-12-24T20:06:02.807Z,7.09
2022-12-24T20:08:30.075Z,7.08
2022-12-24T20:10:56.954Z,6.99
2022-12-24T20:13:23.533Z,6.96
2022-12-24T20:16:28.616Z,6.91
2022-12-24T20:19:04.540Z,6.91
2022-12-24T20:21:32.331Z,6.88
2022-12-24T20:23:58.969Z,6.92
2022-12-24T20:26:27.950Z,6.90
2022-12-24T20:28:54.783Z,6.74
2022-12-24T20:31:25.604Z,6.70
2022-12-24T20:33:53.095Z,6.66
2022-12-24T20:36:21.627Z,6.67
2022-12-24T20:38:48.607Z,6.66
2022-12-24T20:41:17.767Z,6.61
2022-12-24T20:43:48.233Z,6.51
2022-12-24T20:46:19.871Z,6.53
2022-12-24T20:48:46.901Z,6.50
2022-12-24T20:51:23.160Z,6.47
2022-12-24T20:53:51.585Z,6.42
2022-12-24T20:56:18.692Z,6.46
2022-12-24T20:58:45.947Z,6.45
2022-12-24T21:01:20.399Z,6.52
2022-12-24T21:03:47.621Z,6.46
2022-12-24T21:06:15.589Z,6.43
2022-12-24T21:08:42.701Z,6.40
2022-12-24T21:11:32.426Z,6.54
2022-12-24T21:13:59.115Z,6.57
2022-12-24T21:16:25.707Z,6.58
2022-12-24T21:18:52.304Z,6.64
2022-12-24T21:21:18.987Z,6.62
2022-12-24T21:23:45.571Z,6.67
2022-12-24T21:26:12.553Z,6.68
2022-12-24T21:28:39.753Z,6.69
2022-12-24T21:34:02.321Z,6.69
2022-12-24T21:36:29.374Z,6.61
2022-12-24T21:38:56.531Z,6.75
2022-12-24T21:41:23.854Z,6.75
2022-12-24T21:43:50.690Z,6.76
2022-12-24T21:46:22.980Z,6.75
2022-12-24T21:49:10.555Z,6.57
2022-12-24T21:51:38.967Z,6.61
2022-12-24T21:54:28.612Z,6.75
2022-12-24T21:57:20.514Z,6.67
2022-12-24T21:59:51.129Z,6.54
2022-12-24T22:02:19.286Z,6.51
2022-12-24T22:04:46.628Z,6.56
2022-12-24T22:07:43.759Z,6.45
2022-12-24T22:10:30.771Z,6.57
2022-12-24T22:13:00.266Z,6.58
2022-12-24T22:15:27.391Z,6.57
2022-12-24T22:17:54.051Z,6.60
2022-12-24T22:20:20.669Z,6.56
2022-12-24T22:22:48.841Z,6.53
2022-12-24T22:25:16.302Z,6.54
2022-12-24T22:27:43.045Z,6.44
2022-12-24T22:30:10.478Z,6.56
2022-12-24T22:32:37.160Z,6.64
2022-12-24T22:35:03.972Z,6.46
2022-12-24T22:37:30.553Z,6.69
2022-12-24T22:39:57.130Z,6.60
2022-12-24T22:42:23.759Z,6.59
2022-12-24T22:44:50.333Z,6.52
2022-12-24T22:47:16.892Z,6.56
2022-12-24T22:49:43.452Z,6.51
2022-12-24T22:52:10.206Z,6.48
2022-12-24T22:54:36.797Z,6.55
2022-12-24T22:57:03.477Z,6.60
2022-12-24T22:59:30.043Z,6.48
2022-12-24T23:01:57.624Z,6.53
2022-12-24T23:04:25.696Z,6.45
2022-12-24T23:06:52.316Z,6.62
2022-12-24T23:09:18.995Z,6.70
2022-12-24T23:11:45.911Z,6.67
2022-12-24T23:14:39.778Z,6.59
2022-12-24T23:17:08.111Z,6.50
2022-12-24T23:19:35.606Z,6.48
2022-12-24T23:22:03.604Z,6.45
2022-12-24T23:24:30.747Z,6.54
2022-12-24T23:26:58.535Z,6.37
2022-12-24T23:29:25.203Z,6.36
2022-12-24T23:31:51.782Z,6.38
2022-12-24T23:34:18.272Z,6.54
2022-12-24T23:36:44.886Z,6.52
2022-12-24T23:39:14.044Z,6.53
2022-12-24T23:41:40.642Z,6.57
2022-12-24T23:44:07.560Z,6.50
2022-12-24T23:46:34.344Z,6.53
2022-12-24T23:49:00.910Z,6.52
2022-12-24T23:51:28.133Z,6.40
2022-12-24T23:53:56.897Z,6.48
2022-12-24T23:56:24.658Z,6.46
2022-12-24T23:58:51.860Z,6.43
